createdAt,value
2023-08-15T00:03:41.159Z,64.04
2023-08-15T00:06:10.088Z,64.06
2023-08-15T00:08:38.303Z,63.91
2023-08-15T00:11:07.507Z,64.25
2023-08-15T00:13:35.715Z,64.32
2023-08-15T00:16:04.171Z,64.25
2023-08-15T00:18:32.575Z,64.40
2023-08-15T00:21:01.079Z,64.42
2023-08-15T00:23:29.583Z,64.55
2023-08-15T00:25:58.894Z,64.62
2023-08-15T00:28:27.241Z,64.65
2023-08-15T00:30:56.130Z,64.87
2023-08-15T00:33:24.699Z,64.73
2023-08-15T00:35:53.046Z,64.81
2023-08-15T00:38:21.666Z,64.74
2023-08-15T00:40:50.368Z,64.99
2023-08-15T00:43:18.638Z,65.11
2023-08-15T00:45:47.673Z,64.99
2023-08-15T00:48:17.532Z,65.13
2023-08-15T00:50:49.050Z,65.21
2023-08-15T00:53:20.235Z,65.16
2023-08-15T00:55:48.851Z,65.05
2023-08-15T00:58:17.876Z,65.12
2023-08-15T01:00:47.036Z,65.15
2023-08-15T01:03:15.410Z,65.09
2023-08-15T01:05:46.698Z,64.99
2023-08-15T01:08:15.175Z,64.94
2023-08-15T01:10:44.504Z,64.91
2023-08-15T01:13:29.509Z,64.92
2023-08-15T01:15:58.244Z,64.73
2023-08-15T01:18:32.769Z,64.75
2023-08-15T01:21:03.036Z,64.59
2023-08-15T01:23:37.583Z,64.76
2023-08-15T01:26:06.049Z,64.62
2023-08-15T01:28:34.341Z,64.59
2023-08-15T01:31:41.452Z,64.60
2023-08-15T01:34:22.891Z,64.73
2023-08-15T01:37:01.905Z,64.84
2023-08-15T01:39:32.382Z,64.62
2023-08-15T01:42:03.740Z,64.73
2023-08-15T01:44:33.330Z,64.50
2023-08-15T01:47:02.288Z,64.69
2023-08-15T01:49:32.339Z,64.90
2023-08-15T01:52:01.356Z,64.59
2023-08-15T01:54:30.440Z,64.95
2023-08-15T01:56:58.923Z,64.88
2023-08-15T01:59:27.322Z,65.04
2023-08-15T02:01:56.249Z,64.83
2023-08-15T02:04:24.967Z,64.89
2023-08-15T02:06:53.688Z,64.79
2023-08-15T02:09:22.036Z,64.92
2023-08-15T02:11:50.670Z,64.86
2023-08-15T02:14:19.092Z,64.80
2023-08-15T02:16:47.412Z,64.84
2023-08-15T02:19:15.920Z,65.01
2023-08-15T02:21:44.752Z,64.73
2023-08-15T02:24:13.124Z,64.83
2023-08-15T02:26:41.502Z,65.00
2023-08-15T02:29:09.959Z,64.85
2023-08-15T02:31:45.419Z,65.10
2023-08-15T02:34:13.821Z,64.83
2023-08-15T02:36:42.617Z,64.85
2023-08-15T02:39:11.079Z,64.86
2023-08-15T02:41:39.404Z,64.96
2023-08-15T02:44:07.703Z,64.88
2023-08-15T02:46:36.221Z,64.80
2023-08-15T02:49:06.505Z,64.61
2023-08-15T02:51:34.908Z,64.69
2023-08-15T02:54:03.796Z,64.64
2023-08-15T02:56:32.126Z,64.53
2023-08-15T02:59:00.508Z,64.41
2023-08-15T03:01:29.137Z,64.48
2023-08-15T03:03:58.410Z,64.44
2023-08-15T03:06:26.530Z,64.20
2023-08-15T03:08:55.082Z,63.93
2023-08-15T03:11:23.613Z,63.78
2023-08-15T03:13:51.934Z,63.44
2023-08-15T03:16:20.330Z,63.47
2023-08-15T03:18:49.330Z,63.41
2023-08-15T03:21:17.756Z,63.38
2023-08-15T03:23:46.274Z,63.17
2023-08-15T03:26:14.801Z,63.24
2023-08-15T03:28:43.149Z,63.28
2023-08-15T03:31:11.984Z,63.07
2023-08-15T03:33:40.516Z,62.83
2023-08-15T03:36:09.096Z,62.68
2023-08-15T03:38:37.733Z,62.59
2023-08-15T03:41:07.780Z,62.49
2023-08-15T03:43:37.173Z,62.13
2023-08-15T03:46:06.351Z,62.02
2023-08-15T03:48:35.533Z,61.86
2023-08-15T03:51:06.890Z,61.86
2023-08-15T03:53:37.568Z,61.66
2023-08-15T03:56:06.051Z,61.47
2023-08-15T03:58:34.541Z,61.18
2023-08-15T04:01:03.667Z,61.13
2023-08-15T04:03:32.228Z,61.18
2023-08-15T04:06:00.657Z,60.93
2023-08-15T04:08:29.281Z,60.82
2023-08-15T04:10:57.842Z,60.57
2023-08-15T04:13:26.118Z,60.40
2023-08-15T04:15:55.165Z,60.36
2023-08-15T04:18:23.533Z,60.13
2023-08-15T04:20:51.732Z,60.09
2023-08-15T04:23:20.132Z,60.04
2023-08-15T04:25:48.734Z,60.19
2023-08-15T04:28:17.045Z,60.12
2023-08-15T04:30:45.459Z,60.08
2023-08-15T04:33:14.424Z,59.97
2023-08-15T04:35:42.619Z,59.74
2023-08-15T04:38:11.037Z,59.65
2023-08-15T04:40:40.068Z,59.54
2023-08-15T04:43:10.088Z,59.46
2023-08-15T04:45:38.602Z,59.27
2023-08-15T04:48:08.555Z,59.37
2023-08-15T04:50:37.981Z,59.24
2023-08-15T04:53:07.496Z,59.35
2023-08-15T04:55:36.485Z,59.41
2023-08-15T04:58:05.183Z,59.42
2023-08-15T05:00:35.525Z,59.35
2023-08-15T05:03:04.821Z,59.51
2023-08-15T05:05:34.297Z,59.40
2023-08-15T05:08:02.824Z,59.27
2023-08-15T05:10:32.316Z,59.41
2023-08-15T05:13:00.926Z,59.11
2023-08-15T05:15:29.306Z,59.26
2023-08-15T05:17:58.513Z,58.99
2023-08-15T05:20:27.098Z,58.86
2023-08-15T05:22:55.415Z,58.71
2023-08-15T05:25:23.884Z,58.55
2023-08-15T05:27:52.282Z,58.37
2023-08-15T05:30:20.630Z,58.57
2023-08-15T05:32:49.063Z,58.43
2023-08-15T05:35:17.872Z,58.43
2023-08-15T05:37:46.125Z,58.41
2023-08-15T05:40:14.854Z,58.34
2023-08-15T05:42:43.342Z,58.31
2023-08-15T05:45:12.546Z,58.33
2023-08-15T05:47:41.007Z,58.27
2023-08-15T05:50:09.915Z,58.30
2023-08-15T05:52:38.292Z,57.96
2023-08-15T05:55:07.110Z,58.04
2023-08-15T05:57:35.547Z,57.83
2023-08-15T06:00:04.303Z,57.77
2023-08-15T06:02:33.155Z,57.77
2023-08-15T06:05:02.982Z,57.71
2023-08-15T06:07:31.373Z,57.72
2023-08-15T06:10:00.939Z,57.75
2023-08-15T06:12:30.074Z,57.58
2023-08-15T06:14:58.726Z,57.61
2023-08-15T06:17:27.602Z,57.34
2023-08-15T06:19:56.610Z,57.30
2023-08-15T06:22:25.598Z,57.14
2023-08-15T06:24:54.706Z,57.05
2023-08-15T06:27:23.500Z,56.92
2023-08-15T06:29:52.052Z,56.91
2023-08-15T06:32:29.476Z,56.71
2023-08-15T06:34:59.398Z,56.70
2023-08-15T06:37:27.886Z,56.73
2023-08-15T06:39:56.191Z,56.52
2023-08-15T06:42:24.633Z,56.53
2023-08-15T06:45:06.816Z,56.17
2023-08-15T06:47:35.428Z,56.08
2023-08-15T06:50:03.858Z,56.04
2023-08-15T06:52:32.379Z,55.86
2023-08-15T06:55:07.985Z,55.55
2023-08-15T06:57:38.097Z,55.64
2023-08-15T07:00:07.286Z,55.49
2023-08-15T07:02:35.815Z,55.59
2023-08-15T07:05:04.887Z,55.77
2023-08-15T07:07:33.494Z,55.97
2023-08-15T07:10:02.397Z,55.93
2023-08-15T07:12:31.367Z,56.13
2023-08-15T07:14:59.843Z,56.40
2023-08-15T07:17:28.038Z,56.54
2023-08-15T07:19:57.516Z,56.59
2023-08-15T07:22:26.288Z,56.66
2023-08-15T07:24:55.052Z,56.88
2023-08-15T07:27:23.374Z,57.26
2023-08-15T07:29:51.847Z,57.44
2023-08-15T07:32:21.656Z,57.92
2023-08-15T07:34:50.486Z,58.49
2023-08-15T07:37:18.766Z,58.73
2023-08-15T07:39:47.008Z,58.98
2023-08-15T07:42:15.414Z,59.10
2023-08-15T07:44:44.405Z,59.64
2023-08-15T07:47:12.916Z,59.78
2023-08-15T07:49:41.741Z,60.09
2023-08-15T07:52:10.118Z,60.33
2023-08-15T07:54:38.701Z,60.37
2023-08-15T07:57:07.370Z,60.42
2023-08-15T07:59:36.126Z,60.34
2023-08-15T08:02:05.176Z,60.32
2023-08-15T08:04:33.603Z,60.19
2023-08-15T08:07:02.064Z,60.03
2023-08-15T08:09:30.596Z,59.77
2023-08-15T08:11:59.050Z,59.61
2023-08-15T08:14:27.439Z,59.27
2023-08-15T08:16:55.755Z,59.22
2023-08-15T08:19:24.200Z,59.03
2023-08-15T08:21:52.536Z,58.75
2023-08-15T08:24:20.901Z,58.75
2023-08-15T08:26:49.823Z,58.67
2023-08-15T08:29:18.317Z,58.58
2023-08-15T08:31:46.708Z,58.34
2023-08-15T08:34:15.848Z,58.06
2023-08-15T08:36:44.765Z,57.69
2023-08-15T08:39:25.569Z,57.72
2023-08-15T08:42:01.511Z,57.32
2023-08-15T08:44:32.969Z,57.48
2023-08-15T08:47:01.505Z,57.03
2023-08-15T08:49:30.637Z,56.95
2023-08-15T08:52:01.055Z,56.91
2023-08-15T08:54:46.923Z,56.50
2023-08-15T08:57:20.650Z,56.18
2023-08-15T08:59:50.267Z,56.19
2023-08-15T09:02:23.096Z,55.94
2023-08-15T09:04:53.955Z,55.76
2023-08-15T09:07:22.437Z,55.68
2023-08-15T09:09:51.188Z,55.25
2023-08-15T09:12:47.129Z,55.26
2023-08-15T09:15:15.568Z,54.85
2023-08-15T09:17:45.197Z,55.07
2023-08-15T09:20:19.254Z,54.64
2023-08-15T09:22:48.370Z,54.52
2023-08-15T09:25:18.212Z,54.27
2023-08-15T09:27:47.653Z,54.23
2023-08-15T09:30:17.646Z,53.98
2023-08-15T09:32:47.223Z,53.96
2023-08-15T09:35:18.848Z,53.97
2023-08-15T09:37:49.843Z,53.94
2023-08-15T09:40:26.575Z,53.81
2023-08-15T09:42:56.008Z,53.49
2023-08-15T09:45:25.975Z,53.09
2023-08-15T09:47:54.682Z,53.20
2023-08-15T09:50:24.473Z,53.20
2023-08-15T09:52:54.413Z,53.15
2023-08-15T09:55:22.797Z,52.82
2023-08-15T09:57:52.081Z,52.72
2023-08-15T10:00:20.768Z,52.88
2023-08-15T10:02:56.865Z,52.65
2023-08-15T10:05:26.644Z,52.36
2023-08-15T10:07:58.771Z,52.25
2023-08-15T10:10:29.687Z,52.28
2023-08-15T10:12:59.844Z,52.34
2023-08-15T10:15:30.230Z,52.31
2023-08-15T10:17:59.747Z,52.37
2023-08-15T10:20:36.382Z,52.08
2023-08-15T10:23:06.075Z,51.93
2023-08-15T10:25:37.463Z,51.77
2023-08-15T10:28:12.602Z,51.79
2023-08-15T10:30:51.834Z,51.54
2023-08-15T10:33:23.888Z,51.39
2023-08-15T10:36:18.501Z,51.40
2023-08-15T10:38:46.836Z,51.31
2023-08-15T10:41:17.177Z,51.28
2023-08-15T10:43:51.594Z,51.31
2023-08-15T10:46:27.127Z,51.31
2023-08-15T10:49:03.583Z,51.23
2023-08-15T10:51:36.159Z,51.06
2023-08-15T10:54:12.822Z,50.88
2023-08-15T10:56:43.090Z,50.78
2023-08-15T10:59:16.939Z,50.58
2023-08-15T11:01:47.890Z,50.62
2023-08-15T11:04:18.772Z,50.77
2023-08-15T11:06:51.764Z,50.58
2023-08-15T11:09:27.827Z,50.51
2023-08-15T11:12:05.150Z,50.57
2023-08-15T11:14:34.240Z,50.42
2023-08-15T11:17:02.634Z,50.16
2023-08-15T11:19:34.060Z,49.74
2023-08-15T11:22:02.332Z,49.68
2023-08-15T11:24:34.142Z,49.65
2023-08-15T11:27:02.620Z,49.61
2023-08-15T11:29:31.119Z,49.16
2023-08-15T11:32:02.535Z,49.18
2023-08-15T11:34:31.026Z,49.25
2023-08-15T11:36:59.260Z,49.12
2023-08-15T11:39:27.782Z,48.89
2023-08-15T11:41:56.573Z,48.77
2023-08-15T11:44:24.850Z,48.62
2023-08-15T11:46:55.310Z,48.50
2023-08-15T11:49:24.958Z,48.47
2023-08-15T11:52:03.390Z,48.32
2023-08-15T11:54:32.062Z,48.70
2023-08-15T11:57:00.683Z,48.40
2023-08-15T11:59:32.263Z,48.21
2023-08-15T12:02:02.591Z,48.01
2023-08-15T12:04:36.895Z,47.70
2023-08-15T12:07:10.837Z,47.67
2023-08-15T12:09:39.849Z,47.43
2023-08-15T12:12:08.310Z,47.64
2023-08-15T12:14:49.291Z,47.59
2023-08-15T12:17:19.388Z,47.35
2023-08-15T12:19:47.821Z,47.15
2023-08-15T12:22:16.247Z,47.21
2023-08-15T12:24:44.794Z,47.17
2023-08-15T12:27:13.804Z,47.06
2023-08-15T12:30:11.183Z,46.79
2023-08-15T12:32:31.176Z,47.14
2023-08-15T12:34:59.588Z,47.30
2023-08-15T12:37:27.905Z,47.39
2023-08-15T12:39:56.146Z,47.25
2023-08-15T12:42:25.160Z,47.36
2023-08-15T12:44:53.720Z,47.26
2023-08-15T12:47:22.074Z,46.95
2023-08-15T12:49:50.411Z,46.91
2023-08-15T12:52:18.686Z,46.82
2023-08-15T12:54:47.186Z,46.52
2023-08-15T12:57:15.673Z,46.60
2023-08-15T12:59:48.323Z,46.51
2023-08-15T13:02:18.321Z,46.52
2023-08-15T13:04:47.272Z,46.18
2023-08-15T13:07:17.133Z,46.29
2023-08-15T13:09:45.594Z,46.05
2023-08-15T13:12:15.579Z,46.15
2023-08-15T13:14:43.904Z,46.06
2023-08-15T13:17:12.580Z,46.26
2023-08-15T13:19:41.085Z,46.10
2023-08-15T13:22:09.545Z,45.97
2023-08-15T13:24:39.635Z,45.80
2023-08-15T13:27:08.413Z,45.86
2023-08-15T13:29:37.837Z,45.71
2023-08-15T13:32:07.380Z,45.43
2023-08-15T13:34:35.680Z,45.01
2023-08-15T13:37:04.296Z,44.58
2023-08-15T13:39:33.017Z,44.34
2023-08-15T13:42:01.501Z,43.85
2023-08-15T13:44:29.851Z,43.71
2023-08-15T13:46:58.289Z,43.61
2023-08-15T13:49:26.726Z,43.10
2023-08-15T13:51:55.208Z,42.53
2023-08-15T13:54:23.662Z,42.14
2023-08-15T13:56:54.267Z,41.75
2023-08-15T13:59:24.060Z,41.31
2023-08-15T14:01:52.319Z,40.78
2023-08-15T14:04:20.717Z,40.78
2023-08-15T14:06:49.614Z,40.30
2023-08-15T14:09:18.304Z,39.68
2023-08-15T14:11:46.660Z,39.38
2023-08-15T14:14:15.683Z,39.23
2023-08-15T14:16:44.015Z,38.89
2023-08-15T14:19:12.177Z,38.58
2023-08-15T14:21:40.708Z,38.49
2023-08-15T14:24:09.136Z,38.27
2023-08-15T14:26:37.703Z,38.19
2023-08-15T14:29:06.467Z,38.12
2023-08-15T14:31:34.858Z,37.91
2023-08-15T14:34:03.054Z,37.58
2023-08-15T14:36:31.695Z,37.34
2023-08-15T14:38:59.945Z,37.06
2023-08-15T14:41:28.504Z,37.08
2023-08-15T14:43:56.776Z,37.03
2023-08-15T14:46:25.184Z,37.15
2023-08-15T14:48:53.510Z,36.95
2023-08-15T14:51:22.109Z,37.21
2023-08-15T14:53:50.421Z,37.08
2023-08-15T14:56:19.284Z,37.00
2023-08-15T14:58:47.845Z,37.24
2023-08-15T15:01:16.301Z,37.45
2023-08-15T15:03:45.206Z,37.84
2023-08-15T15:06:13.828Z,37.72
2023-08-15T15:08:42.172Z,37.92
2023-08-15T15:11:10.511Z,38.13
2023-08-15T15:13:39.304Z,38.35
2023-08-15T15:16:07.717Z,38.88
2023-08-15T15:18:36.157Z,38.89
2023-08-15T15:21:06.105Z,39.66
2023-08-15T15:23:35.081Z,39.79
2023-08-15T15:26:03.654Z,40.39
2023-08-15T15:28:32.148Z,40.61
2023-08-15T15:31:00.430Z,41.17
2023-08-15T15:33:29.315Z,41.58
2023-08-15T15:35:57.860Z,42.00
2023-08-15T15:38:26.516Z,42.38
2023-08-15T15:40:55.013Z,42.95
2023-08-15T15:43:23.409Z,43.11
2023-08-15T15:45:52.523Z,43.60
2023-08-15T15:48:20.957Z,44.00
2023-08-15T15:50:51.481Z,44.34
2023-08-15T15:53:19.866Z,44.68
2023-08-15T15:55:48.299Z,44.87
2023-08-15T15:58:17.127Z,45.00
2023-08-15T16:00:46.250Z,45.35
2023-08-15T16:03:14.580Z,45.45
2023-08-15T16:05:43.688Z,45.44
2023-08-15T16:08:12.000Z,45.84
2023-08-15T16:10:40.306Z,46.26
2023-08-15T16:13:11.460Z,46.67
2023-08-15T16:15:40.568Z,46.83
2023-08-15T16:18:10.696Z,46.80
2023-08-15T16:20:40.040Z,47.22
2023-08-15T16:23:09.078Z,47.50
2023-08-15T16:25:38.768Z,47.68
2023-08-15T16:28:07.679Z,47.94
2023-08-15T16:30:39.385Z,48.23
2023-08-15T16:33:08.077Z,48.60
2023-08-15T16:35:37.777Z,48.80
2023-08-15T16:38:07.445Z,48.86
2023-08-15T16:40:38.348Z,49.09
2023-08-15T16:43:15.205Z,49.36
2023-08-15T16:45:45.868Z,49.86
2023-08-15T16:48:16.161Z,50.02
2023-08-15T16:50:45.263Z,50.13
2023-08-15T16:53:13.580Z,50.34
2023-08-15T16:55:41.891Z,50.80
2023-08-15T16:58:10.218Z,51.04
2023-08-15T17:00:38.571Z,51.30
2023-08-15T17:03:07.190Z,51.30
2023-08-15T17:05:36.179Z,51.46
2023-08-15T17:08:04.845Z,51.85
2023-08-15T17:10:33.953Z,52.14
2023-08-15T17:13:02.465Z,52.26
2023-08-15T17:15:32.341Z,52.46
2023-08-15T17:18:00.764Z,52.54
2023-08-15T17:20:29.090Z,52.83
2023-08-15T17:22:57.363Z,53.15
2023-08-15T17:25:26.167Z,53.48
2023-08-15T17:27:54.657Z,53.70
2023-08-15T17:30:23.361Z,53.60
2023-08-15T17:32:51.809Z,53.44
2023-08-15T17:35:20.200Z,53.80
2023-08-15T17:37:49.025Z,54.30
2023-08-15T17:40:17.986Z,54.31
2023-08-15T17:42:46.270Z,54.48
2023-08-15T17:45:14.623Z,54.73
2023-08-15T17:47:43.303Z,54.97
2023-08-15T17:50:12.461Z,55.16
2023-08-15T17:52:41.066Z,55.36
2023-08-15T17:55:10.994Z,55.63
2023-08-15T17:57:39.422Z,55.84
2023-08-15T18:00:08.633Z,56.05
2023-08-15T18:02:37.634Z,56.54
2023-08-15T18:05:06.154Z,56.84
2023-08-15T18:07:34.774Z,56.96
2023-08-15T18:10:05.044Z,57.14
2023-08-15T18:12:34.074Z,57.68
2023-08-15T18:15:02.592Z,57.76
2023-08-15T18:17:31.072Z,57.87
2023-08-15T18:19:59.542Z,58.00
2023-08-15T18:22:27.993Z,58.24
2023-08-15T18:24:56.635Z,58.33
2023-08-15T18:27:24.988Z,58.66
2023-08-15T18:29:53.305Z,58.85
2023-08-15T18:32:22.956Z,59.18
2023-08-15T18:34:52.220Z,59.05
2023-08-15T18:37:24.812Z,59.61
2023-08-15T18:39:53.422Z,59.62
2023-08-15T18:42:21.881Z,59.80
2023-08-15T18:44:51.179Z,59.95
2023-08-15T18:47:20.331Z,60.31
2023-08-15T18:49:48.855Z,60.43
2023-08-15T18:52:17.304Z,60.55
2023-08-15T18:54:45.743Z,60.78
2023-08-15T18:57:14.226Z,60.94
2023-08-15T18:59:42.786Z,61.04
2023-08-15T19:02:11.487Z,61.25
2023-08-15T19:04:40.084Z,61.61
2023-08-15T19:07:08.421Z,61.69
2023-08-15T19:09:36.534Z,61.97
2023-08-15T19:12:05.470Z,62.23
2023-08-15T19:14:34.206Z,62.50
2023-08-15T19:17:02.559Z,62.59
2023-08-15T19:19:31.015Z,62.69
2023-08-15T19:21:59.535Z,62.82
2023-08-15T19:24:27.873Z,62.93
2023-08-15T19:26:56.142Z,63.10
2023-08-15T19:29:24.688Z,63.37
2023-08-15T19:31:53.067Z,63.44
2023-08-15T19:34:21.377Z,63.67
2023-08-15T19:36:49.709Z,63.80
2023-08-15T19:39:17.912Z,63.84
2023-08-15T19:41:46.214Z,64.06
2023-08-15T19:44:14.605Z,64.17
2023-08-15T19:46:43.017Z,64.28
2023-08-15T19:49:11.560Z,64.47
2023-08-15T19:51:40.314Z,64.62
2023-08-15T19:54:08.697Z,64.60
2023-08-15T19:56:36.969Z,64.71
2023-08-15T19:59:05.804Z,64.89
2023-08-15T20:01:34.762Z,64.91
2023-08-15T20:04:03.925Z,65.04
2023-08-15T20:06:32.606Z,65.15
2023-08-15T20:09:01.023Z,65.25
2023-08-15T20:11:29.619Z,65.39
2023-08-15T20:13:58.295Z,65.40
2023-08-15T20:16:26.727Z,65.50
2023-08-15T20:18:55.765Z,65.51
2023-08-15T20:21:24.225Z,65.67
2023-08-15T20:23:52.864Z,65.66
2023-08-15T20:26:21.201Z,65.70
2023-08-15T20:28:49.885Z,65.71
2023-08-15T20:31:18.467Z,65.67
2023-08-15T20:33:46.799Z,65.91
2023-08-15T20:36:15.242Z,65.89
2023-08-15T20:38:43.794Z,65.99
2023-08-15T20:41:12.178Z,66.16
2023-08-15T20:43:40.794Z,66.33
2023-08-15T20:46:09.191Z,66.22
2023-08-15T20:48:38.084Z,66.34
2023-08-15T20:51:06.558Z,66.35
2023-08-15T20:53:35.123Z,66.52
2023-08-15T20:56:03.820Z,66.56
2023-08-15T20:58:33.175Z,66.57
2023-08-15T21:01:01.834Z,66.76
2023-08-15T21:03:31.362Z,66.85
2023-08-15T21:06:00.009Z,66.86
2023-08-15T21:08:28.689Z,66.93
2023-08-15T21:10:57.061Z,66.97
2023-08-15T21:13:26.744Z,67.04
2023-08-15T21:15:55.245Z,66.98
2023-08-15T21:18:23.556Z,66.94
2023-08-15T21:20:52.248Z,66.98
2023-08-15T21:23:20.497Z,67.03
2023-08-15T21:25:48.901Z,67.12
2023-08-15T21:28:17.485Z,67.07
2023-08-15T21:30:45.791Z,67.07
2023-08-15T21:33:14.380Z,67.33
2023-08-15T21:35:43.311Z,67.28
2023-08-15T21:38:11.660Z,67.29
2023-08-15T21:40:44.694Z,67.28
2023-08-15T21:43:13.247Z,67.29
2023-08-15T21:45:47.232Z,67.24
2023-08-15T21:48:15.590Z,67.15
2023-08-15T21:50:44.045Z,67.33
2023-08-15T21:53:12.423Z,67.38
2023-08-15T21:55:40.720Z,67.43
2023-08-15T21:58:08.960Z,67.39
2023-08-15T22:00:37.790Z,67.40
2023-08-15T22:03:06.337Z,67.33
2023-08-15T22:05:35.064Z,67.59
2023-08-15T22:08:03.781Z,67.54
2023-08-15T22:10:32.168Z,67.34
2023-08-15T22:13:01.213Z,67.32
2023-08-15T22:15:30.292Z,67.35
2023-08-15T22:18:13.223Z,67.52
2023-08-15T22:20:48.078Z,67.54
2023-08-15T22:23:16.630Z,67.45
2023-08-15T22:25:46.821Z,67.48
2023-08-15T22:28:16.779Z,67.42
2023-08-15T22:30:45.510Z,67.46
2023-08-15T22:33:14.024Z,67.30
2023-08-15T22:35:43.858Z,67.36
2023-08-15T22:38:12.751Z,67.46
2023-08-15T22:40:41.318Z,67.47
2023-08-15T22:43:10.713Z,67.62
2023-08-15T22:45:39.404Z,67.48
2023-08-15T22:48:07.850Z,67.36
2023-08-15T22:50:36.321Z,67.33
2023-08-15T22:53:05.188Z,67.34
2023-08-15T22:55:33.459Z,67.41
2023-08-15T22:58:01.845Z,67.55
2023-08-15T23:00:30.034Z,67.58
2023-08-15T23:02:58.374Z,67.43
2023-08-15T23:05:26.858Z,67.51
2023-08-15T23:07:55.180Z,67.64
2023-08-15T23:10:23.382Z,67.74
2023-08-15T23:12:52.000Z,67.92
2023-08-15T23:15:21.014Z,68.00
2023-08-15T23:17:49.451Z,68.12
2023-08-15T23:20:18.096Z,68.00
2023-08-15T23:22:48.355Z,68.10
2023-08-15T23:25:16.793Z,68.06
2023-08-15T23:27:45.418Z,68.14
2023-08-15T23:30:15.485Z,67.90
2023-08-15T23:32:43.820Z,67.80
2023-08-15T23:35:15.183Z,67.48
2023-08-15T23:37:45.318Z,67.43
2023-08-15T23:40:14.745Z,67.22
2023-08-15T23:42:43.137Z,67.05
2023-08-15T23:45:11.849Z,66.99
2023-08-15T23:47:41.488Z,66.71
2023-08-15T23:50:10.793Z,66.50
2023-08-15T23:52:39.032Z,66.57
2023-08-15T23:55:07.745Z,66.52
2023-08-15T23:57:36.069Z,66.35
